createdAt,value
2019-02-21T00:01:05.018Z,61.80
2019-02-21T00:03:35.676Z,62.06
2019-02-21T00:06:06.025Z,61.33
2019-02-21T00:08:36.306Z,61.42
2019-02-21T00:11:06.615Z,61.84
2019-02-21T00:13:36.903Z,61.54
2019-02-21T00:16:07.172Z,61.57
2019-02-21T00:18:37.467Z,61.41
2019-02-21T00:21:07.753Z,61.00
2019-02-21T00:23:38.060Z,61.11
2019-02-21T00:26:10.630Z,61.26
2019-02-21T00:28:40.929Z,61.54
2019-02-21T00:31:11.212Z,60.60
2019-02-21T00:33:41.501Z,60.55
2019-02-21T00:36:11.786Z,60.56
2019-02-21T00:38:42.094Z,60.57
2019-02-21T00:41:12.357Z,60.34
2019-02-21T00:43:42.640Z,60.49
2019-02-21T00:46:12.929Z,60.67
2019-02-21T00:48:43.231Z,60.43
2019-02-21T00:51:13.551Z,61.11
2019-02-21T00:53:43.858Z,61.17
2019-02-21T00:56:14.132Z,60.78
2019-02-21T00:58:44.421Z,61.02
2019-02-21T01:01:14.729Z,61.03
2019-02-21T01:03:45.071Z,60.89
2019-02-21T01:06:15.353Z,61.45
2019-02-21T01:08:47.232Z,62.13
2019-02-21T01:11:17.492Z,61.50
2019-02-21T01:13:47.777Z,61.46
2019-02-21T01:16:18.096Z,61.55
2019-02-21T01:18:48.376Z,61.69
2019-02-21T01:21:19.749Z,61.58
2019-02-21T01:23:50.031Z,61.68
2019-02-21T01:26:20.293Z,61.28
2019-02-21T01:28:50.589Z,60.31
2019-02-21T01:31:20.864Z,60.53
2019-02-21T01:33:52.115Z,60.43
2019-02-21T01:36:22.383Z,60.39
2019-02-21T01:38:52.661Z,60.02
2019-02-21T01:41:22.955Z,59.48
2019-02-21T01:43:53.427Z,60.12
2019-02-21T01:46:23.702Z,59.99
2019-02-21T01:48:54.057Z,60.35
2019-02-21T01:51:24.344Z,59.53
2019-02-21T01:53:54.623Z,60.06
2019-02-21T01:56:24.952Z,60.21
2019-02-21T01:58:55.200Z,59.82
2019-02-21T02:01:25.478Z,59.84
2019-02-21T02:03:56.022Z,59.80
2019-02-21T02:06:26.324Z,60.29
2019-02-21T02:08:56.596Z,60.18
2019-02-21T02:11:27.849Z,60.50
2019-02-21T02:13:58.168Z,60.74
2019-02-21T02:16:28.439Z,60.46
2019-02-21T02:18:58.719Z,60.86
2019-02-21T02:21:29.013Z,61.19
2019-02-21T02:23:59.296Z,61.20
2019-02-21T02:26:29.553Z,60.73
2019-02-21T02:28:59.956Z,60.77
2019-02-21T02:31:30.323Z,60.94
2019-02-21T02:34:00.612Z,61.69
2019-02-21T02:36:31.022Z,61.62
2019-02-21T02:39:01.292Z,61.07
2019-02-21T02:41:33.146Z,60.98
2019-02-21T02:44:03.558Z,61.35
2019-02-21T02:46:33.812Z,61.51
2019-02-21T02:49:04.183Z,61.78
2019-02-21T02:51:34.449Z,61.81
2019-02-21T02:54:04.713Z,61.98
2019-02-21T02:56:34.983Z,62.11
2019-02-21T02:59:06.301Z,62.36
2019-02-21T03:01:36.887Z,62.22
2019-02-21T03:04:07.172Z,62.31
2019-02-21T03:06:37.468Z,62.71
2019-02-21T03:09:09.370Z,62.82
2019-02-21T03:11:39.928Z,62.85
2019-02-21T03:14:10.222Z,62.57
2019-02-21T03:16:40.480Z,62.17
2019-02-21T03:19:10.770Z,62.18
2019-02-21T03:21:41.040Z,62.07
2019-02-21T03:24:11.323Z,62.53
2019-02-21T03:26:41.640Z,61.95
2019-02-21T03:29:11.910Z,62.52
2019-02-21T03:31:54.591Z,62.48
2019-02-21T03:34:14.174Z,62.64
2019-02-21T03:36:44.454Z,62.07
2019-02-21T03:39:14.745Z,62.41
2019-02-21T03:41:45.112Z,62.26
2019-02-21T03:44:15.528Z,62.54
2019-02-21T03:46:45.779Z,61.99
2019-02-21T03:49:16.038Z,62.03
2019-02-21T03:51:46.314Z,62.05
2019-02-21T03:54:16.592Z,62.48
2019-02-21T03:56:46.866Z,62.56
2019-02-21T03:59:17.335Z,62.62
2019-02-21T04:01:47.639Z,62.17
2019-02-21T04:04:19.522Z,62.01
2019-02-21T04:06:49.872Z,62.08
2019-02-21T04:09:20.143Z,61.69
2019-02-21T04:11:50.395Z,61.05
2019-02-21T04:14:21.218Z,61.20
2019-02-21T04:16:51.523Z,61.40
2019-02-21T04:19:22.850Z,61.93
2019-02-21T04:21:53.129Z,62.21
2019-02-21T04:24:23.398Z,62.12
2019-02-21T04:26:53.696Z,62.20
2019-02-21T04:29:23.970Z,62.45
2019-02-21T04:31:54.242Z,62.14
2019-02-21T04:34:24.516Z,62.03
2019-02-21T04:36:55.885Z,62.71
2019-02-21T04:39:26.112Z,61.97
2019-02-21T04:41:56.379Z,61.93
2019-02-21T04:44:26.639Z,62.03
2019-02-21T04:46:56.901Z,62.26
2019-02-21T04:49:27.174Z,62.17
2019-02-21T04:51:57.449Z,61.95
2019-02-21T04:54:27.727Z,62.65
2019-02-21T04:56:58.946Z,62.89
2019-02-21T04:59:29.195Z,62.96
2019-02-21T05:01:59.483Z,63.43
2019-02-21T05:04:29.760Z,63.43
2019-02-21T05:07:00.037Z,63.57
2019-02-21T05:09:30.326Z,63.43
2019-02-21T05:12:00.580Z,63.79
2019-02-21T05:14:30.831Z,62.69
2019-02-21T05:17:01.219Z,63.06
2019-02-21T05:19:31.612Z,63.46
2019-02-21T05:22:01.884Z,63.41
2019-02-21T05:24:32.750Z,63.24
2019-02-21T05:27:04.784Z,63.39
2019-02-21T05:29:35.102Z,63.28
2019-02-21T05:32:15.909Z,63.85
2019-02-21T05:34:50.474Z,63.93
2019-02-21T05:37:22.633Z,64.05
2019-02-21T05:40:03.199Z,63.34
2019-02-21T05:42:40.746Z,63.73
2019-02-21T05:45:31.652Z,63.50
2019-02-21T05:48:20.526Z,63.19
2019-02-21T05:51:08.126Z,63.50
2019-02-21T05:53:40.510Z,63.78
2019-02-21T05:56:18.365Z,63.50
2019-02-21T05:59:02.935Z,64.38
2019-02-21T06:01:38.525Z,64.01
2019-02-21T06:04:13.297Z,65.37
2019-02-21T06:06:55.097Z,65.73
2019-02-21T06:09:27.824Z,65.81
2019-02-21T06:12:08.650Z,65.81
2019-02-21T06:14:45.237Z,66.07
2019-02-21T06:17:20.024Z,65.78
2019-02-21T06:20:07.086Z,66.32
2019-02-21T06:22:39.007Z,67.03
2019-02-21T06:25:10.966Z,67.33
2019-02-21T06:27:45.635Z,67.91
2019-02-21T06:30:17.572Z,68.67
2019-02-21T06:32:47.846Z,68.81
2019-02-21T06:35:21.177Z,68.63
2019-02-21T06:37:52.150Z,69.06
2019-02-21T06:40:22.606Z,69.44
2019-02-21T06:42:52.881Z,69.65
2019-02-21T06:45:23.161Z,69.49
2019-02-21T06:47:53.478Z,68.94
2019-02-21T06:50:26.987Z,69.35
2019-02-21T06:52:55.749Z,69.47
2019-02-21T06:55:26.986Z,68.95
2019-02-21T06:57:57.235Z,69.31
2019-02-21T07:00:27.556Z,69.67
2019-02-21T07:02:57.852Z,70.29
2019-02-21T07:05:28.152Z,70.51
2019-02-21T07:07:58.425Z,70.73
2019-02-21T07:10:28.695Z,70.74
2019-02-21T07:12:59.000Z,70.58
2019-02-21T07:15:29.343Z,70.19
2019-02-21T07:17:59.629Z,70.04
2019-02-21T07:20:30.020Z,69.02
2019-02-21T07:23:01.403Z,67.96
2019-02-21T07:25:39.242Z,67.47
2019-02-21T07:28:12.511Z,67.35
2019-02-21T07:30:43.108Z,67.18
2019-02-21T07:33:13.373Z,66.75
2019-02-21T07:35:43.681Z,67.08
2019-02-21T07:38:13.946Z,67.45
2019-02-21T07:40:44.268Z,68.02
2019-02-21T07:43:14.531Z,68.66
2019-02-21T07:45:44.838Z,67.81
2019-02-21T07:48:15.108Z,68.27
2019-02-21T07:50:45.388Z,67.90
2019-02-21T07:53:15.720Z,67.75
2019-02-21T07:55:45.986Z,68.58
2019-02-21T07:58:16.263Z,68.14
2019-02-21T08:00:46.573Z,67.28
2019-02-21T08:03:16.874Z,68.48
2019-02-21T08:05:47.156Z,68.78
2019-02-21T08:08:17.543Z,68.77
2019-02-21T08:10:47.869Z,69.71
2019-02-21T08:13:18.150Z,69.26
2019-02-21T08:15:48.439Z,69.82
2019-02-21T08:18:18.715Z,69.94
2019-02-21T08:20:49.030Z,70.01
2019-02-21T08:23:19.364Z,70.01
2019-02-21T08:25:49.609Z,70.12
2019-02-21T08:28:20.164Z,70.07
2019-02-21T08:30:50.477Z,70.38
2019-02-21T08:33:23.354Z,69.61
2019-02-21T08:35:54.235Z,70.15
2019-02-21T08:38:24.693Z,70.02
2019-02-21T08:40:57.205Z,70.77
2019-02-21T08:43:27.941Z,70.36
2019-02-21T08:45:58.279Z,70.89
2019-02-21T08:48:28.834Z,70.69
2019-02-21T08:51:00.750Z,70.55
2019-02-21T08:53:31.298Z,70.06
2019-02-21T08:56:01.763Z,70.99
2019-02-21T08:58:32.664Z,71.35
2019-02-21T09:01:03.521Z,70.62
2019-02-21T09:03:34.760Z,70.64
2019-02-21T09:06:05.169Z,70.71
2019-02-21T09:08:37.256Z,70.38
2019-02-21T09:11:07.671Z,70.16
2019-02-21T09:13:37.913Z,71.02
2019-02-21T09:16:08.257Z,71.34
2019-02-21T09:18:38.582Z,70.92
2019-02-21T09:21:08.879Z,70.80
2019-02-21T09:23:39.409Z,71.50
2019-02-21T09:26:10.139Z,71.25
2019-02-21T09:28:40.567Z,72.08
2019-02-21T09:31:10.878Z,72.35
2019-02-21T09:33:43.663Z,72.07
2019-02-21T09:36:13.185Z,72.12
2019-02-21T09:38:43.488Z,73.23
2019-02-21T09:41:13.903Z,73.14
2019-02-21T09:43:44.206Z,72.69
2019-02-21T09:46:14.478Z,71.87
2019-02-21T09:48:44.806Z,71.62
2019-02-21T09:51:18.018Z,71.63
2019-02-21T09:53:47.214Z,71.81
2019-02-21T09:56:17.486Z,71.80
2019-02-21T09:58:47.870Z,72.54
2019-02-21T10:01:18.212Z,72.80
2019-02-21T10:03:48.706Z,72.40
2019-02-21T10:06:21.436Z,72.71
2019-02-21T10:08:52.124Z,72.85
2019-02-21T10:11:22.682Z,71.90
2019-02-21T10:13:53.432Z,71.64
2019-02-21T10:16:23.890Z,71.80
2019-02-21T10:18:54.949Z,71.92
2019-02-21T10:21:25.892Z,71.11
2019-02-21T10:23:56.958Z,69.70
2019-02-21T10:26:27.478Z,70.55
2019-02-21T10:28:57.857Z,70.25
2019-02-21T10:31:28.681Z,69.48
2019-02-21T10:33:59.115Z,68.94
2019-02-21T10:36:30.228Z,70.18
2019-02-21T10:39:00.678Z,70.62
2019-02-21T10:41:32.715Z,71.15
2019-02-21T10:44:04.548Z,71.47
2019-02-21T10:46:35.914Z,70.25
2019-02-21T10:49:06.178Z,71.08
2019-02-21T10:51:37.809Z,71.78
2019-02-21T10:54:08.098Z,71.59
2019-02-21T10:56:38.382Z,71.90
2019-02-21T10:59:08.684Z,72.67
2019-02-21T11:01:38.943Z,72.67
2019-02-21T11:04:09.220Z,72.58
2019-02-21T11:06:39.477Z,72.37
2019-02-21T11:09:13.068Z,72.18
2019-02-21T11:11:43.440Z,72.22
2019-02-21T11:14:13.711Z,71.51
2019-02-21T11:16:44.092Z,72.14
2019-02-21T11:19:14.360Z,71.98
2019-02-21T11:21:47.449Z,72.83
2019-02-21T11:24:17.751Z,72.42
2019-02-21T11:26:48.003Z,72.98
2019-02-21T11:29:18.307Z,73.41
2019-02-21T11:31:48.592Z,73.57
2019-02-21T11:34:19.021Z,73.87
2019-02-21T11:36:49.297Z,74.51
2019-02-21T11:39:20.095Z,74.33
2019-02-21T11:41:50.375Z,74.38
2019-02-21T11:44:20.784Z,74.38
2019-02-21T11:46:51.500Z,74.36
2019-02-21T11:49:21.794Z,74.13
2019-02-21T11:51:53.137Z,73.61
2019-02-21T11:54:26.876Z,73.54
2019-02-21T11:56:55.404Z,73.40
2019-02-21T11:59:25.677Z,73.65
2019-02-21T12:01:55.976Z,73.54
2019-02-21T12:04:26.316Z,73.16
2019-02-21T12:06:56.648Z,73.96
2019-02-21T12:09:26.940Z,73.33
2019-02-21T12:11:57.241Z,73.89
2019-02-21T12:14:27.695Z,73.61
2019-02-21T12:16:57.985Z,73.95
2019-02-21T12:19:28.262Z,74.95
2019-02-21T12:21:59.418Z,74.30
2019-02-21T12:24:29.834Z,74.84
2019-02-21T12:27:00.112Z,74.18
2019-02-21T12:29:30.401Z,74.49
2019-02-21T12:32:00.705Z,73.76
2019-02-21T12:34:32.699Z,73.80
2019-02-21T12:37:02.966Z,74.10
2019-02-21T12:39:33.296Z,74.39
2019-02-21T12:42:03.640Z,74.22
2019-02-21T12:44:33.939Z,73.79
2019-02-21T12:47:04.465Z,73.99
2019-02-21T12:49:34.790Z,74.80
2019-02-21T12:52:05.071Z,75.70
2019-02-21T12:54:35.365Z,76.43
2019-02-21T12:57:05.633Z,77.12
2019-02-21T12:59:35.933Z,77.39
2019-02-21T13:02:06.284Z,76.93
2019-02-21T13:04:36.625Z,77.09
2019-02-21T13:07:08.765Z,77.25
2019-02-21T13:09:39.044Z,77.54
2019-02-21T13:12:10.146Z,77.33
2019-02-21T13:14:41.460Z,77.21
2019-02-21T13:17:13.226Z,77.04
2019-02-21T13:19:43.518Z,76.76
2019-02-21T13:22:13.796Z,76.46
2019-02-21T13:24:44.145Z,76.71
2019-02-21T13:27:14.478Z,76.51
2019-02-21T13:29:44.766Z,75.84
2019-02-21T13:32:15.225Z,76.55
2019-02-21T13:34:46.186Z,76.88
2019-02-21T13:37:27.974Z,76.84
2019-02-21T13:39:48.683Z,76.55
2019-02-21T13:42:18.986Z,76.41
2019-02-21T13:44:50.664Z,76.13
2019-02-21T13:47:21.034Z,76.05
2019-02-21T13:49:51.618Z,75.96
2019-02-21T13:52:21.931Z,76.31
2019-02-21T13:54:52.291Z,76.41
2019-02-21T13:57:22.578Z,76.14
2019-02-21T13:59:52.891Z,76.45
2019-02-21T14:02:23.480Z,76.15
2019-02-21T14:04:53.868Z,76.16
2019-02-21T14:07:25.779Z,76.12
2019-02-21T14:09:56.178Z,76.53
2019-02-21T14:12:26.759Z,76.31
2019-02-21T14:14:57.429Z,76.16
2019-02-21T14:17:28.396Z,75.81
2019-02-21T14:19:58.870Z,76.26
2019-02-21T14:22:29.198Z,76.61
2019-02-21T14:24:59.598Z,76.87
2019-02-21T14:27:31.850Z,76.99
2019-02-21T14:30:02.095Z,77.39
2019-02-21T14:32:33.267Z,77.75
2019-02-21T14:35:05.259Z,77.45
2019-02-21T14:37:35.863Z,77.82
2019-02-21T14:40:09.000Z,78.22
2019-02-21T14:42:39.438Z,78.25
2019-02-21T14:45:18.572Z,78.26
2019-02-21T14:47:49.025Z,78.44
2019-02-21T14:50:19.348Z,78.47
2019-02-21T14:52:49.928Z,78.49
2019-02-21T14:55:20.712Z,78.26
2019-02-21T14:57:51.081Z,78.48
2019-02-21T15:00:22.781Z,78.07
2019-02-21T15:02:53.227Z,77.61
2019-02-21T15:05:24.320Z,77.51
2019-02-21T15:07:54.871Z,77.06
2019-02-21T15:10:25.556Z,76.36
2019-02-21T15:12:56.240Z,76.38
2019-02-21T15:15:27.497Z,76.08
2019-02-21T15:18:06.830Z,75.95
2019-02-21T15:20:36.662Z,76.09
2019-02-21T15:23:03.777Z,75.95
2019-02-21T15:25:34.502Z,75.85
2019-02-21T15:28:06.820Z,75.37
2019-02-21T15:30:37.369Z,75.10
2019-02-21T15:33:07.757Z,74.31
2019-02-21T15:35:38.333Z,75.13
2019-02-21T15:38:19.630Z,75.26
2019-02-21T15:40:43.398Z,75.01
2019-02-21T15:43:13.999Z,74.34
2019-02-21T15:45:44.343Z,74.01
2019-02-21T15:48:15.199Z,74.64
2019-02-21T15:50:45.811Z,74.94
2019-02-21T15:53:16.465Z,74.80
2019-02-21T15:55:47.086Z,74.68
2019-02-21T15:58:17.594Z,74.56
2019-02-21T16:00:47.894Z,74.51
2019-02-21T16:03:18.391Z,74.97
2019-02-21T16:05:50.575Z,75.03
2019-02-21T16:08:21.149Z,73.90
2019-02-21T16:10:51.573Z,74.62
2019-02-21T16:13:23.448Z,75.20
2019-02-21T16:15:54.036Z,73.94
2019-02-21T16:18:24.500Z,75.04
2019-02-21T16:20:54.907Z,75.58
2019-02-21T16:23:25.551Z,75.73
2019-02-21T16:25:55.970Z,75.90
2019-02-21T16:28:26.371Z,76.35
2019-02-21T16:30:56.697Z,76.14
2019-02-21T16:33:28.769Z,75.99
2019-02-21T16:35:59.040Z,76.31
2019-02-21T16:38:30.805Z,76.89
2019-02-21T16:41:01.346Z,77.51
2019-02-21T16:43:33.287Z,76.85
2019-02-21T16:46:07.851Z,77.36
2019-02-21T16:48:36.234Z,77.21
2019-02-21T16:51:07.028Z,77.10
2019-02-21T16:53:37.843Z,76.93
2019-02-21T16:56:08.815Z,76.69
2019-02-21T16:58:42.699Z,77.28
2019-02-21T17:01:12.326Z,77.17
2019-02-21T17:03:44.477Z,77.22
2019-02-21T17:06:15.584Z,77.68
2019-02-21T17:08:46.411Z,77.48
2019-02-21T17:11:18.388Z,77.80
2019-02-21T17:13:49.009Z,77.98
2019-02-21T17:16:19.747Z,77.63
2019-02-21T17:18:50.518Z,77.83
2019-02-21T17:21:21.256Z,77.77
2019-02-21T17:23:51.676Z,77.91
2019-02-21T17:26:22.277Z,78.02
2019-02-21T17:28:52.683Z,78.49
2019-02-21T17:31:22.999Z,78.31
2019-02-21T17:33:54.244Z,78.17
2019-02-21T17:36:24.823Z,78.36
2019-02-21T17:38:55.828Z,78.40
2019-02-21T17:41:26.173Z,78.38
2019-02-21T17:43:56.567Z,78.21
2019-02-21T17:46:26.966Z,77.44
2019-02-21T17:48:57.488Z,76.58
2019-02-21T17:51:29.089Z,77.13
2019-02-21T17:54:00.195Z,78.38
2019-02-21T17:56:30.811Z,78.60
2019-02-21T17:59:01.183Z,79.18
2019-02-21T18:01:32.207Z,79.02
2019-02-21T18:04:02.485Z,78.30
2019-02-21T18:06:32.778Z,78.54
2019-02-21T18:09:04.798Z,78.76
2019-02-21T18:11:37.674Z,79.03
2019-02-21T18:14:08.069Z,79.10
2019-02-21T18:16:38.500Z,79.21
2019-02-21T18:19:09.092Z,79.18
2019-02-21T18:21:40.003Z,79.31
2019-02-21T18:24:10.373Z,79.38
2019-02-21T18:26:41.864Z,78.96
2019-02-21T18:29:12.271Z,79.31
2019-02-21T18:31:42.689Z,78.96
2019-02-21T18:34:13.414Z,79.29
2019-02-21T18:36:44.032Z,78.55
2019-02-21T18:39:14.771Z,78.78
2019-02-21T18:41:45.212Z,78.53
2019-02-21T18:44:15.924Z,78.99
2019-02-21T18:46:46.221Z,79.41
2019-02-21T18:49:16.558Z,80.26
2019-02-21T18:51:47.320Z,80.62
2019-02-21T18:54:19.556Z,80.64
2019-02-21T18:56:50.312Z,80.85
2019-02-21T18:59:31.110Z,80.96
2019-02-21T19:01:53.475Z,80.48
2019-02-21T19:04:24.094Z,80.42
2019-02-21T19:06:54.628Z,80.48
2019-02-21T19:09:25.545Z,80.77
2019-02-21T19:11:56.331Z,80.96
2019-02-21T19:14:27.311Z,80.68
2019-02-21T19:16:58.260Z,80.87
2019-02-21T19:19:29.033Z,80.63
2019-02-21T19:22:00.176Z,80.67
2019-02-21T19:24:30.857Z,80.74
2019-02-21T19:27:01.241Z,80.66
2019-02-21T19:29:31.621Z,80.34
2019-02-21T19:32:01.929Z,80.05
2019-02-21T19:34:34.905Z,80.24
2019-02-21T19:37:05.223Z,80.24
2019-02-21T19:39:35.607Z,80.35
2019-02-21T19:42:06.012Z,79.92
2019-02-21T19:44:37.746Z,80.04
2019-02-21T19:47:09.771Z,80.07
2019-02-21T19:49:40.034Z,80.26
2019-02-21T19:52:11.507Z,79.96
2019-02-21T19:54:42.014Z,80.34
2019-02-21T19:57:13.171Z,79.58
2019-02-21T19:59:44.683Z,80.16
2019-02-21T20:02:14.968Z,80.00
2019-02-21T20:04:46.138Z,79.91
2019-02-21T20:07:17.519Z,79.99
2019-02-21T20:09:47.853Z,79.81
2019-02-21T20:12:19.480Z,79.78
2019-02-21T20:14:50.055Z,79.86
2019-02-21T20:17:21.876Z,79.54
2019-02-21T20:19:54.216Z,79.53
2019-02-21T20:22:24.844Z,79.54
2019-02-21T20:24:55.268Z,79.22
2019-02-21T20:27:27.387Z,79.24
2019-02-21T20:29:57.869Z,79.28
2019-02-21T20:32:28.732Z,79.65
2019-02-21T20:34:59.556Z,79.83
2019-02-21T20:37:30.325Z,79.13
2019-02-21T20:40:00.631Z,79.17
2019-02-21T20:42:31.816Z,79.72
2019-02-21T20:45:02.460Z,80.00
2019-02-21T20:47:37.121Z,80.49
2019-02-21T20:50:09.558Z,80.63
2019-02-21T20:52:39.884Z,80.20
2019-02-21T20:55:11.809Z,80.45
2019-02-21T20:57:42.122Z,80.19
2019-02-21T21:00:16.571Z,80.54
2019-02-21T21:02:47.982Z,80.86
2019-02-21T21:05:18.267Z,80.73
2019-02-21T21:07:48.578Z,80.24
2019-02-21T21:10:19.045Z,80.19
2019-02-21T21:12:49.338Z,80.32
2019-02-21T21:15:20.558Z,79.70
2019-02-21T21:17:50.942Z,80.68
2019-02-21T21:20:21.337Z,81.13
2019-02-21T21:22:51.603Z,80.13
2019-02-21T21:25:21.944Z,80.61
2019-02-21T21:27:53.282Z,80.45
2019-02-21T21:30:23.553Z,80.88
2019-02-21T21:32:53.812Z,80.82
2019-02-21T21:35:24.110Z,79.45
2019-02-21T21:37:54.422Z,79.44
2019-02-21T21:40:24.723Z,78.56
2019-02-21T21:42:55.007Z,79.43
2019-02-21T21:45:26.268Z,78.84
2019-02-21T21:47:57.395Z,78.91
2019-02-21T21:50:27.812Z,79.77
2019-02-21T21:52:58.135Z,79.58
2019-02-21T21:55:28.416Z,79.58
2019-02-21T21:57:58.710Z,79.40
2019-02-21T22:00:28.982Z,80.07
2019-02-21T22:02:59.267Z,80.77
2019-02-21T22:05:29.557Z,80.38
2019-02-21T22:07:59.838Z,81.44
2019-02-21T22:10:31.716Z,81.80
2019-02-21T22:13:02.010Z,82.10
2019-02-21T22:15:32.323Z,81.58
2019-02-21T22:18:02.604Z,81.69
2019-02-21T22:20:33.196Z,81.59
2019-02-21T22:23:03.496Z,82.09
2019-02-21T22:25:34.001Z,82.36
2019-02-21T22:28:04.675Z,82.91
2019-02-21T22:30:35.080Z,83.15
2019-02-21T22:33:05.579Z,83.37
2019-02-21T22:35:35.856Z,82.90
2019-02-21T22:38:06.146Z,82.93
2019-02-21T22:40:36.592Z,83.35
2019-02-21T22:43:07.010Z,83.42
2019-02-21T22:45:37.270Z,83.42
2019-02-21T22:48:07.542Z,83.35
2019-02-21T22:50:37.808Z,83.49
2019-02-21T22:53:08.104Z,83.41
2019-02-21T22:55:38.397Z,83.41
2019-02-21T22:58:08.688Z,83.34
2019-02-21T23:00:58.356Z,83.18
2019-02-21T23:03:34.740Z,82.97
2019-02-21T23:06:41.650Z,82.95
2019-02-21T23:09:27.620Z,82.94
2019-02-21T23:11:54.575Z,82.99
2019-02-21T23:14:25.024Z,82.90
2019-02-21T23:16:55.301Z,82.08
2019-02-21T23:19:25.584Z,82.26
2019-02-21T23:21:55.843Z,81.50
2019-02-21T23:24:26.156Z,81.67
2019-02-21T23:26:56.609Z,81.68
2019-02-21T23:29:26.877Z,81.66
2019-02-21T23:31:57.165Z,81.51
2019-02-21T23:34:38.422Z,81.39
2019-02-21T23:37:09.679Z,81.53
2019-02-21T23:39:39.972Z,81.90
2019-02-21T23:42:10.347Z,82.09
2019-02-21T23:44:40.625Z,81.77
2019-02-21T23:47:10.906Z,81.53
2019-02-21T23:49:41.187Z,81.82
2019-02-21T23:52:11.498Z,82.00
2019-02-21T23:54:41.786Z,81.77
2019-02-21T23:57:12.061Z,82.03
2019-02-21T23:59:43.328Z,81.86
